sensor_id;sensor_type;location;lat;lon;timestamp;P1;durP1;ratioP1;P2;durP2;ratioP2
7653;SDS011;3869;48.406;10.774;2024-03-02T06:17:35;0.40;;;0.40;;
7653;SDS011;3869;48.406;10.774;2024-03-02T06:20:04;1.13;;;0.70;;
7653;SDS011;3869;48.406;10.774;2024-03-02T06:22:35;2.33;;;1.83;;
7653;SDS011;3869;48.406;10.774;2024-03-02T06:25:04;3.20;;;2.10;;
7653;SDS011;3869;48.406;10.774;2024-03-02T06:27:32;2.60;;;2.40;;
7653;SDS011;3869;48.406;10.774;2024-03-02T06:30:00;3.13;;;2.75;;
7653;SDS011;3869;48.406;10.774;2024-03-02T06:32:30;4.57;;;2.37;;
7653;SDS011;3869;48.406;10.774;2024-03-02T06:34:58;2.30;;;2.10;;
7653;SDS011;3869;48.406;10.774;2024-03-02T06:37:26;4.82;;;2.80;;
7653;SDS011;3869;48.406;10.774;2024-03-02T06:39:55;4.60;;;2.70;;
7653;SDS011;3869;48.406;10.774;2024-03-02T06:42:23;3.67;;;2.90;;
7653;SDS011;3869;48.406;10.774;2024-03-02T06:44:51;2.10;;;1.40;;
7653;SDS011;3869;48.406;10.774;2024-03-02T06:47:19;1.10;;;1.10;;
7653;SDS011;3869;48.406;10.774;2024-03-02T06:49:48;1.77;;;1.77;;
7653;SDS011;3869;48.406;10.774;2024-03-02T06:52:16;1.50;;;1.40;;
7653;SDS011;3869;48.406;10.774;2024-03-02T06:54:46;4.73;;;1.17;;
7653;SDS011;3869;48.406;10.774;2024-03-02T06:57:16;1.47;;;1.37;;
7653;SDS011;3869;48.406;10.774;2024-03-02T07:04:42;6.80;;;3.42;;
7653;SDS011;3869;48.406;10.774;2024-03-02T07:07:11;2.17;;;1.00;;
7653;SDS011;3869;48.406;10.774;2024-03-02T07:09:39;1.43;;;1.43;;
7653;SDS011;3869;48.406;10.774;2024-03-02T07:12:07;1.13;;;0.73;;
7653;SDS011;3869;48.406;10.774;2024-03-02T07:14:37;0.60;;;0.60;;
7653;SDS011;3869;48.406;10.774;2024-03-02T07:17:23;1.47;;;1.20;;
7653;SDS011;3869;48.406;10.774;2024-03-02T07:22:19;4.68;;;2.92;;
7653;SDS011;3869;48.406;10.774;2024-03-02T07:24:47;1.87;;;1.40;;
7653;SDS011;3869;48.406;10.774;2024-03-02T07:27:16;1.40;;;1.20;;
7653;SDS011;3869;48.406;10.774;2024-03-02T07:29:45;1.90;;;1.80;;
7653;SDS011;3869;48.406;10.774;2024-03-02T07:32:13;1.97;;;1.47;;
7653;SDS011;3869;48.406;10.774;2024-03-02T07:34:41;0.90;;;0.90;;
7653;SDS011;3869;48.406;10.774;2024-03-02T07:37:09;1.13;;;1.13;;
7653;SDS011;3869;48.406;10.774;2024-03-02T07:39:37;2.27;;;1.70;;
7653;SDS011;3869;48.406;10.774;2024-03-02T07:42:06;0.97;;;0.97;;
7653;SDS011;3869;48.406;10.774;2024-03-02T07:44:34;1.30;;;1.20;;
7653;SDS011;3869;48.406;10.774;2024-03-02T07:47:05;3.13;;;1.53;;
7653;SDS011;3869;48.406;10.774;2024-03-02T07:49:34;0.83;;;0.83;;
7653;SDS011;3869;48.406;10.774;2024-03-02T07:52:02;0.70;;;0.70;;
7653;SDS011;3869;48.406;10.774;2024-03-02T07:54:30;2.17;;;1.40;;
7653;SDS011;3869;48.406;10.774;2024-03-02T07:56:58;0.77;;;0.77;;
7653;SDS011;3869;48.406;10.774;2024-03-02T07:59:27;1.67;;;1.67;;
7653;SDS011;3869;48.406;10.774;2024-03-02T08:01:55;1.13;;;1.13;;
7653;SDS011;3869;48.406;10.774;2024-03-02T08:04:26;1.10;;;1.10;;
7653;SDS011;3869;48.406;10.774;2024-03-02T08:06:54;0.70;;;0.70;;
7653;SDS011;3869;48.406;10.774;2024-03-02T08:09:22;2.50;;;2.20;;
7653;SDS011;3869;48.406;10.774;2024-03-02T08:11:50;1.10;;;1.10;;
7653;SDS011;3869;48.406;10.774;2024-03-02T08:14:18;1.33;;;0.97;;
7653;SDS011;3869;48.406;10.774;2024-03-02T08:16:46;1.20;;;1.20;;
7653;SDS011;3869;48.406;10.774;2024-03-02T08:19:14;0.93;;;0.93;;
7653;SDS011;3869;48.406;10.774;2024-03-02T08:21:44;1.37;;;1.23;;
7653;SDS011;3869;48.406;10.774;2024-03-02T08:24:12;0.90;;;0.90;;
7653;SDS011;3869;48.406;10.774;2024-03-02T08:26:40;0.80;;;0.80;;
7653;SDS011;3869;48.406;10.774;2024-03-02T08:29:08;1.87;;;1.70;;
7653;SDS011;3869;48.406;10.774;2024-03-02T08:31:37;0.60;;;0.60;;
7653;SDS011;3869;48.406;10.774;2024-03-02T08:34:07;1.40;;;1.40;;
7653;SDS011;3869;48.406;10.774;2024-03-02T08:36:36;2.57;;;1.73;;
7653;SDS011;3869;48.406;10.774;2024-03-02T08:39:06;2.20;;;0.80;;
7653;SDS011;3869;48.406;10.774;2024-03-02T08:41:41;1.20;;;1.10;;
7653;SDS011;3869;48.406;10.774;2024-03-02T08:44:10;2.03;;;1.00;;
7653;SDS011;3869;48.406;10.774;2024-03-02T08:46:38;0.80;;;0.80;;
7653;SDS011;3869;48.406;10.774;2024-03-02T09:08:53;3.80;;;2.00;;
7653;SDS011;3869;48.406;10.774;2024-03-02T09:11:21;1.20;;;1.20;;
7653;SDS011;3869;48.406;10.774;2024-03-02T09:13:50;1.03;;;1.03;;
7653;SDS011;3869;48.406;10.774;2024-03-02T09:16:19;1.20;;;1.20;;
7653;SDS011;3869;48.406;10.774;2024-03-02T09:18:47;2.53;;;1.63;;
7653;SDS011;3869;48.406;10.774;2024-03-02T09:21:15;1.13;;;0.90;;
7653;SDS011;3869;48.406;10.774;2024-03-02T09:23:43;0.80;;;0.80;;
7653;SDS011;3869;48.406;10.774;2024-03-02T09:26:11;1.53;;;1.43;;
7653;SDS011;3869;48.406;10.774;2024-03-02T09:28:42;0.63;;;0.63;;
7653;SDS011;3869;48.406;10.774;2024-03-02T09:31:11;0.83;;;0.83;;
7653;SDS011;3869;48.406;10.774;2024-03-02T09:33:39;1.80;;;1.00;;
7653;SDS011;3869;48.406;10.774;2024-03-02T09:36:16;3.83;;;0.87;;
7653;SDS011;3869;48.406;10.774;2024-03-02T09:38:44;0.80;;;0.80;;
7653;SDS011;3869;48.406;10.774;2024-03-02T09:41:13;0.70;;;0.70;;
7653;SDS011;3869;48.406;10.774;2024-03-02T09:43:41;0.70;;;0.70;;
7653;SDS011;3869;48.406;10.774;2024-03-02T09:46:10;0.60;;;0.60;;
7653;SDS011;3869;48.406;10.774;2024-03-02T09:48:39;1.13;;;1.13;;
7653;SDS011;3869;48.406;10.774;2024-03-02T09:51:07;1.33;;;0.83;;
7653;SDS011;3869;48.406;10.774;2024-03-02T09:53:36;0.80;;;0.80;;
7653;SDS011;3869;48.406;10.774;2024-03-02T09:56:04;0.70;;;0.70;;
7653;SDS011;3869;48.406;10.774;2024-03-02T09:58:32;0.70;;;0.70;;
7653;SDS011;3869;48.406;10.774;2024-03-02T10:01:00;1.73;;;1.63;;
7653;SDS011;3869;48.406;10.774;2024-03-02T10:03:30;0.70;;;0.70;;
7653;SDS011;3869;48.406;10.774;2024-03-02T10:08:47;4.30;;;1.33;;
7653;SDS011;3869;48.406;10.774;2024-03-02T10:11:28;2.47;;;1.73;;
7653;SDS011;3869;48.406;10.774;2024-03-02T10:14:06;0.67;;;0.67;;
7653;SDS011;3869;48.406;10.774;2024-03-02T10:16:35;8.17;;;1.10;;
7653;SDS011;3869;48.406;10.774;2024-03-02T10:19:18;0.80;;;0.70;;
7653;SDS011;3869;48.406;10.774;2024-03-02T10:21:47;0.90;;;0.90;;
7653;SDS011;3869;48.406;10.774;2024-03-02T10:24:15;1.27;;;1.13;;
7653;SDS011;3869;48.406;10.774;2024-03-02T10:26:44;0.87;;;0.63;;
7653;SDS011;3869;48.406;10.774;2024-03-02T10:29:12;0.60;;;0.60;;
7653;SDS011;3869;48.406;10.774;2024-03-02T10:31:41;0.97;;;0.93;;
7653;SDS011;3869;48.406;10.774;2024-03-02T10:34:10;0.80;;;0.80;;
7653;SDS011;3869;48.406;10.774;2024-03-02T10:36:42;3.57;;;3.27;;
7653;SDS011;3869;48.406;10.774;2024-03-02T10:39:12;0.80;;;0.80;;
7653;SDS011;3869;48.406;10.774;2024-03-02T10:41:41;0.90;;;0.90;;
7653;SDS011;3869;48.406;10.774;2024-03-02T10:44:11;4.67;;;4.27;;
7653;SDS011;3869;48.406;10.774;2024-03-02T10:46:40;0.80;;;0.80;;
7653;SDS011;3869;48.406;10.774;2024-03-02T10:49:08;1.10;;;1.10;;
7653;SDS011;3869;48.406;10.774;2024-03-02T10:51:36;0.80;;;0.80;;
7653;SDS011;3869;48.406;10.774;2024-03-02T10:54:05;0.90;;;0.90;;
7653;SDS011;3869;48.406;10.774;2024-03-02T10:56:36;0.70;;;0.70;;
7653;SDS011;3869;48.406;10.774;2024-03-02T10:59:08;1.17;;;1.07;;
7653;SDS011;3869;48.406;10.774;2024-03-02T11:01:43;0.50;;;0.50;;
7653;SDS011;3869;48.406;10.774;2024-03-02T11:04:15;2.10;;;1.00;;
7653;SDS011;3869;48.406;10.774;2024-03-02T11:06:47;1.27;;;0.60;;
7653;SDS011;3869;48.406;10.774;2024-03-02T11:09:18;1.17;;;0.83;;
7653;SDS011;3869;48.406;10.774;2024-03-02T11:11:49;0.70;;;0.70;;
7653;SDS011;3869;48.406;10.774;2024-03-02T11:14:23;1.13;;;0.53;;
7653;SDS011;3869;48.406;10.774;2024-03-02T11:16:52;0.53;;;0.53;;
7653;SDS011;3869;48.406;10.774;2024-03-02T11:19:21;1.20;;;1.20;;
7653;SDS011;3869;48.406;10.774;2024-03-02T11:21:51;0.80;;;0.80;;
7653;SDS011;3869;48.406;10.774;2024-03-02T11:24:30;1.80;;;0.73;;
7653;SDS011;3869;48.406;10.774;2024-03-02T11:27:04;0.50;;;0.50;;
7653;SDS011;3869;48.406;10.774;2024-03-02T11:29:43;0.60;;;0.60;;
7653;SDS011;3869;48.406;10.774;2024-03-02T11:32:14;1.37;;;1.23;;
7653;SDS011;3869;48.406;10.774;2024-03-02T11:34:44;0.63;;;0.60;;
7653;SDS011;3869;48.406;10.774;2024-03-02T11:37:14;0.83;;;0.83;;
7653;SDS011;3869;48.406;10.774;2024-03-02T11:39:44;1.17;;;1.00;;
7653;SDS011;3869;48.406;10.774;2024-03-02T11:42:14;0.63;;;0.63;;
7653;SDS011;3869;48.406;10.774;2024-03-02T11:44:43;1.00;;;1.00;;
7653;SDS011;3869;48.406;10.774;2024-03-02T11:47:14;0.70;;;0.70;;
7653;SDS011;3869;48.406;10.774;2024-03-02T11:49:43;1.37;;;1.27;;
7653;SDS011;3869;48.406;10.774;2024-03-02T11:52:12;0.90;;;0.90;;
7653;SDS011;3869;48.406;10.774;2024-03-02T11:54:41;2.85;;;1.45;;
7653;SDS011;3869;48.406;10.774;2024-03-02T11:57:15;2.03;;;1.90;;
7653;SDS011;3869;48.406;10.774;2024-03-02T11:59:45;2.33;;;2.13;;
7653;SDS011;3869;48.406;10.774;2024-03-02T12:02:17;3.92;;;2.22;;
7653;SDS011;3869;48.406;10.774;2024-03-02T12:04:45;2.70;;;1.90;;
7653;SDS011;3869;48.406;10.774;2024-03-02T12:07:18;1.83;;;1.73;;
7653;SDS011;3869;48.406;10.774;2024-03-02T12:09:48;2.90;;;2.30;;
7653;SDS011;3869;48.406;10.774;2024-03-02T12:12:27;3.10;;;2.40;;
7653;SDS011;3869;48.406;10.774;2024-03-02T12:14:55;2.03;;;1.92;;
7653;SDS011;3869;48.406;10.774;2024-03-02T12:17:25;2.00;;;1.80;;
7653;SDS011;3869;48.406;10.774;2024-03-02T12:19:53;3.80;;;2.00;;
7653;SDS011;3869;48.406;10.774;2024-03-02T12:22:21;3.50;;;2.50;;
7653;SDS011;3869;48.406;10.774;2024-03-02T12:24:49;4.03;;;2.67;;
7653;SDS011;3869;48.406;10.774;2024-03-02T12:27:18;3.83;;;1.73;;
7653;SDS011;3869;48.406;10.774;2024-03-02T12:29:49;2.10;;;2.00;;
7653;SDS011;3869;48.406;10.774;2024-03-02T12:32:17;4.38;;;2.00;;
7653;SDS011;3869;48.406;10.774;2024-03-02T12:34:46;2.42;;;2.00;;
7653;SDS011;3869;48.406;10.774;2024-03-02T12:37:14;2.08;;;1.90;;
7653;SDS011;3869;48.406;10.774;2024-03-02T12:39:44;3.60;;;2.60;;
7653;SDS011;3869;48.406;10.774;2024-03-02T12:42:13;2.80;;;2.50;;
7653;SDS011;3869;48.406;10.774;2024-03-02T12:44:41;6.57;;;2.40;;
7653;SDS011;3869;48.406;10.774;2024-03-02T12:47:10;3.70;;;2.60;;
7653;SDS011;3869;48.406;10.774;2024-03-02T12:49:40;3.20;;;2.50;;
7653;SDS011;3869;48.406;10.774;2024-03-02T12:52:08;2.78;;;2.50;;
7653;SDS011;3869;48.406;10.774;2024-03-02T12:54:36;7.50;;;3.40;;
7653;SDS011;3869;48.406;10.774;2024-03-02T12:57:04;4.97;;;3.25;;
7653;SDS011;3869;48.406;10.774;2024-03-02T12:59:32;6.70;;;3.08;;
7653;SDS011;3869;48.406;10.774;2024-03-02T13:02:00;4.38;;;2.85;;
7653;SDS011;3869;48.406;10.774;2024-03-02T13:04:30;5.00;;;3.30;;
7653;SDS011;3869;48.406;10.774;2024-03-02T13:06:58;3.17;;;2.85;;
7653;SDS011;3869;48.406;10.774;2024-03-02T13:09:28;6.25;;;3.50;;
7653;SDS011;3869;48.406;10.774;2024-03-02T13:11:56;5.25;;;3.85;;
7653;SDS011;3869;48.406;10.774;2024-03-02T13:14:25;8.50;;;3.78;;
7653;SDS011;3869;48.406;10.774;2024-03-02T13:16:53;5.30;;;3.60;;
7653;SDS011;3869;48.406;10.774;2024-03-02T13:19:23;3.90;;;2.85;;
7653;SDS011;3869;48.406;10.774;2024-03-02T13:21:52;6.43;;;3.70;;
7653;SDS011;3869;48.406;10.774;2024-03-02T13:24:20;4.63;;;3.00;;
7653;SDS011;3869;48.406;10.774;2024-03-02T13:26:51;13.93;;;4.07;;
7653;SDS011;3869;48.406;10.774;2024-03-02T13:29:21;5.40;;;4.15;;
7653;SDS011;3869;48.406;10.774;2024-03-02T13:31:49;7.30;;;4.20;;
7653;SDS011;3869;48.406;10.774;2024-03-02T13:34:18;6.27;;;3.97;;
7653;SDS011;3869;48.406;10.774;2024-03-02T13:36:46;7.75;;;3.00;;
7653;SDS011;3869;48.406;10.774;2024-03-02T13:39:16;3.83;;;3.00;;
7653;SDS011;3869;48.406;10.774;2024-03-02T13:41:44;5.30;;;3.00;;
7653;SDS011;3869;48.406;10.774;2024-03-02T13:44:18;8.63;;;4.28;;
7653;SDS011;3869;48.406;10.774;2024-03-02T13:46:48;6.45;;;3.90;;
7653;SDS011;3869;48.406;10.774;2024-03-02T13:49:16;6.85;;;3.17;;
7653;SDS011;3869;48.406;10.774;2024-03-02T13:51:44;4.35;;;3.42;;
7653;SDS011;3869;48.406;10.774;2024-03-02T13:54:12;5.80;;;3.88;;
7653;SDS011;3869;48.406;10.774;2024-03-02T13:56:41;6.15;;;3.30;;
7653;SDS011;3869;48.406;10.774;2024-03-02T13:59:09;4.57;;;3.40;;
7653;SDS011;3869;48.406;10.774;2024-03-02T14:01:37;7.88;;;3.10;;
7653;SDS011;3869;48.406;10.774;2024-03-02T14:04:05;7.75;;;4.25;;
7653;SDS011;3869;48.406;10.774;2024-03-02T14:06:33;5.35;;;3.60;;
7653;SDS011;3869;48.406;10.774;2024-03-02T14:09:01;5.97;;;3.30;;
7653;SDS011;3869;48.406;10.774;2024-03-02T14:11:29;11.05;;;4.25;;
7653;SDS011;3869;48.406;10.774;2024-03-02T14:13:59;6.95;;;4.38;;
7653;SDS011;3869;48.406;10.774;2024-03-02T14:16:27;6.55;;;4.18;;
7653;SDS011;3869;48.406;10.774;2024-03-02T14:18:55;7.85;;;3.40;;
7653;SDS011;3869;48.406;10.774;2024-03-02T14:21:24;7.80;;;4.40;;
7653;SDS011;3869;48.406;10.774;2024-03-02T14:23:52;7.10;;;4.57;;
7653;SDS011;3869;48.406;10.774;2024-03-02T14:26:21;5.50;;;3.67;;
7653;SDS011;3869;48.406;10.774;2024-03-02T14:28:49;7.30;;;4.53;;
7653;SDS011;3869;48.406;10.774;2024-03-02T14:31:21;6.47;;;3.65;;
7653;SDS011;3869;48.406;10.774;2024-03-02T14:33:51;8.23;;;4.07;;
7653;SDS011;3869;48.406;10.774;2024-03-02T14:36:19;9.97;;;4.77;;
7653;SDS011;3869;48.406;10.774;2024-03-02T14:38:47;5.17;;;3.73;;
7653;SDS011;3869;48.406;10.774;2024-03-02T14:41:16;7.93;;;4.40;;
7653;SDS011;3869;48.406;10.774;2024-03-02T14:43:44;4.13;;;3.40;;
7653;SDS011;3869;48.406;10.774;2024-03-02T14:46:12;6.22;;;3.60;;
7653;SDS011;3869;48.406;10.774;2024-03-02T14:48:43;4.70;;;2.80;;
7653;SDS011;3869;48.406;10.774;2024-03-02T14:51:11;5.78;;;3.17;;
7653;SDS011;3869;48.406;10.774;2024-03-02T14:53:40;7.30;;;3.00;;
7653;SDS011;3869;48.406;10.774;2024-03-02T14:56:08;4.50;;;3.00;;
7653;SDS011;3869;48.406;10.774;2024-03-02T14:58:36;6.40;;;3.85;;
7653;SDS011;3869;48.406;10.774;2024-03-02T15:01:04;4.80;;;3.90;;
7653;SDS011;3869;48.406;10.774;2024-03-02T15:03:33;6.72;;;4.10;;
7653;SDS011;3869;48.406;10.774;2024-03-02T15:06:03;7.20;;;4.18;;
7653;SDS011;3869;48.406;10.774;2024-03-02T15:08:33;6.00;;;3.45;;
7653;SDS011;3869;48.406;10.774;2024-03-02T15:11:01;5.95;;;3.75;;
7653;SDS011;3869;48.406;10.774;2024-03-02T15:13:30;10.93;;;4.32;;
7653;SDS011;3869;48.406;10.774;2024-03-02T15:15:58;3.20;;;2.50;;
7653;SDS011;3869;48.406;10.774;2024-03-02T15:18:27;5.53;;;3.00;;
7653;SDS011;3869;48.406;10.774;2024-03-02T15:20:55;7.72;;;3.47;;
7653;SDS011;3869;48.406;10.774;2024-03-02T15:23:24;5.35;;;3.40;;
7653;SDS011;3869;48.406;10.774;2024-03-02T15:25:52;8.35;;;3.30;;
7653;SDS011;3869;48.406;10.774;2024-03-02T15:28:20;5.45;;;3.47;;
7653;SDS011;3869;48.406;10.774;2024-03-02T15:30:48;9.33;;;4.10;;
7653;SDS011;3869;48.406;10.774;2024-03-02T15:33:19;5.00;;;3.30;;
7653;SDS011;3869;48.406;10.774;2024-03-02T15:35:47;6.10;;;3.28;;
7653;SDS011;3869;48.406;10.774;2024-03-02T15:38:15;5.95;;;3.10;;
7653;SDS011;3869;48.406;10.774;2024-03-02T15:40:59;3.20;;;2.80;;
7653;SDS011;3869;48.406;10.774;2024-03-02T15:43:27;5.87;;;3.40;;
7653;SDS011;3869;48.406;10.774;2024-03-02T15:45:57;4.57;;;2.90;;
7653;SDS011;3869;48.406;10.774;2024-03-02T15:48:25;3.67;;;3.08;;
7653;SDS011;3869;48.406;10.774;2024-03-02T15:50:54;6.70;;;3.47;;
7653;SDS011;3869;48.406;10.774;2024-03-02T15:53:22;8.13;;;3.03;;
7653;SDS011;3869;48.406;10.774;2024-03-02T15:55:50;4.85;;;2.90;;
7653;SDS011;3869;48.406;10.774;2024-03-02T15:58:20;7.22;;;3.47;;
7653;SDS011;3869;48.406;10.774;2024-03-02T16:00:48;4.50;;;3.20;;
7653;SDS011;3869;48.406;10.774;2024-03-02T16:03:16;4.78;;;2.50;;
7653;SDS011;3869;48.406;10.774;2024-03-02T16:05:44;5.55;;;2.95;;
7653;SDS011;3869;48.406;10.774;2024-03-02T16:08:12;5.70;;;3.35;;
7653;SDS011;3869;48.406;10.774;2024-03-02T16:10:40;5.72;;;3.20;;
7653;SDS011;3869;48.406;10.774;2024-03-02T16:13:08;5.35;;;3.25;;
7653;SDS011;3869;48.406;10.774;2024-03-02T16:15:37;5.07;;;2.55;;
7653;SDS011;3869;48.406;10.774;2024-03-02T16:18:06;3.03;;;2.73;;
7653;SDS011;3869;48.406;10.774;2024-03-02T16:20:34;5.60;;;2.92;;
7653;SDS011;3869;48.406;10.774;2024-03-02T16:23:02;4.70;;;3.20;;
7653;SDS011;3869;48.406;10.774;2024-03-02T16:25:32;5.20;;;3.95;;
7653;SDS011;3869;48.406;10.774;2024-03-02T16:28:02;6.47;;;3.50;;
7653;SDS011;3869;48.406;10.774;2024-03-02T16:30:30;3.97;;;2.90;;
7653;SDS011;3869;48.406;10.774;2024-03-02T16:33:00;5.00;;;3.55;;
7653;SDS011;3869;48.406;10.774;2024-03-02T16:35:28;5.10;;;3.30;;
7653;SDS011;3869;48.406;10.774;2024-03-02T16:37:56;8.40;;;3.90;;
7653;SDS011;3869;48.406;10.774;2024-03-02T16:40:24;6.43;;;3.22;;
7653;SDS011;3869;48.406;10.774;2024-03-02T16:42:52;5.22;;;3.60;;
7653;SDS011;3869;48.406;10.774;2024-03-02T16:45:20;9.13;;;4.00;;
7653;SDS011;3869;48.406;10.774;2024-03-02T16:47:48;4.65;;;3.00;;
7653;SDS011;3869;48.406;10.774;2024-03-02T16:50:17;5.40;;;3.20;;
7653;SDS011;3869;48.406;10.774;2024-03-02T16:52:45;8.03;;;3.10;;
7653;SDS011;3869;48.406;10.774;2024-03-02T16:55:13;5.72;;;3.63;;
7653;SDS011;3869;48.406;10.774;2024-03-02T16:57:42;6.15;;;3.50;;
7653;SDS011;3869;48.406;10.774;2024-03-02T17:00:10;6.85;;;3.65;;
7653;SDS011;3869;48.406;10.774;2024-03-02T17:02:39;4.57;;;3.20;;
7653;SDS011;3869;48.406;10.774;2024-03-02T17:05:07;6.22;;;3.50;;
7653;SDS011;3869;48.406;10.774;2024-03-02T17:07:37;7.10;;;2.97;;
7653;SDS011;3869;48.406;10.774;2024-03-02T17:10:05;4.23;;;3.20;;
7653;SDS011;3869;48.406;10.774;2024-03-02T17:12:34;8.05;;;3.45;;
7653;SDS011;3869;48.406;10.774;2024-03-02T17:15:02;5.65;;;3.22;;
7653;SDS011;3869;48.406;10.774;2024-03-02T17:17:30;9.43;;;3.45;;
7653;SDS011;3869;48.406;10.774;2024-03-02T17:19:59;9.77;;;4.43;;
7653;SDS011;3869;48.406;10.774;2024-03-02T17:22:27;8.35;;;4.70;;
7653;SDS011;3869;48.406;10.774;2024-03-02T17:24:58;7.85;;;3.70;;
7653;SDS011;3869;48.406;10.774;2024-03-02T17:27:27;10.13;;;3.92;;
7653;SDS011;3869;48.406;10.774;2024-03-02T17:29:57;6.15;;;3.88;;
7653;SDS011;3869;48.406;10.774;2024-03-02T17:32:25;11.35;;;4.57;;
7653;SDS011;3869;48.406;10.774;2024-03-02T17:34:54;6.67;;;3.40;;
7653;SDS011;3869;48.406;10.774;2024-03-02T17:37:22;2.60;;;2.40;;
7653;SDS011;3869;48.406;10.774;2024-03-02T17:39:50;4.77;;;2.60;;
7653;SDS011;3869;48.406;10.774;2024-03-02T17:42:20;2.73;;;2.07;;
7653;SDS011;3869;48.406;10.774;2024-03-02T17:44:48;5.93;;;3.77;;
7653;SDS011;3869;48.406;10.774;2024-03-02T17:47:16;2.70;;;2.33;;
7653;SDS011;3869;48.406;10.774;2024-03-02T17:49:44;1.63;;;1.53;;
7653;SDS011;3869;48.406;10.774;2024-03-02T17:52:12;1.17;;;1.17;;
7653;SDS011;3869;48.406;10.774;2024-03-02T17:54:40;3.03;;;1.50;;
7653;SDS011;3869;48.406;10.774;2024-03-02T17:57:08;2.73;;;2.60;;
7653;SDS011;3869;48.406;10.774;2024-03-02T17:59:38;2.50;;;2.30;;
7653;SDS011;3869;48.406;10.774;2024-03-02T18:02:06;4.00;;;1.73;;
7653;SDS011;3869;48.406;10.774;2024-03-02T18:04:34;1.30;;;1.30;;
7653;SDS011;3869;48.406;10.774;2024-03-02T18:07:02;4.30;;;2.10;;
7653;SDS011;3869;48.406;10.774;2024-03-02T18:09:30;2.63;;;2.53;;
7653;SDS011;3869;48.406;10.774;2024-03-02T18:11:58;1.37;;;1.27;;
7653;SDS011;3869;48.406;10.774;2024-03-02T18:14:29;3.47;;;2.20;;
7653;SDS011;3869;48.406;10.774;2024-03-02T18:16:59;2.60;;;2.40;;
7653;SDS011;3869;48.406;10.774;2024-03-02T18:19:27;2.30;;;2.20;;
7653;SDS011;3869;48.406;10.774;2024-03-02T18:21:57;4.63;;;2.50;;
7653;SDS011;3869;48.406;10.774;2024-03-02T18:24:25;4.57;;;2.13;;
7653;SDS011;3869;48.406;10.774;2024-03-02T18:26:55;2.10;;;2.00;;
7653;SDS011;3869;48.406;10.774;2024-03-02T18:29:23;2.27;;;2.17;;
7653;SDS011;3869;48.406;10.774;2024-03-02T18:31:50;7.13;;;2.40;;
7653;SDS011;3869;48.406;10.774;2024-03-02T18:34:20;5.07;;;2.70;;
7653;SDS011;3869;48.406;10.774;2024-03-02T18:36:49;1.97;;;1.87;;
7653;SDS011;3869;48.406;10.774;2024-03-02T18:39:18;2.17;;;1.97;;
7653;SDS011;3869;48.406;10.774;2024-03-02T18:41:46;10.70;;;1.63;;
7653;SDS011;3869;48.406;10.774;2024-03-02T18:44:15;2.03;;;1.93;;
7653;SDS011;3869;48.406;10.774;2024-03-02T18:46:43;1.67;;;1.47;;
7653;SDS011;3869;48.406;10.774;2024-03-02T18:49:14;1.17;;;1.17;;
7653;SDS011;3869;48.406;10.774;2024-03-02T18:51:43;3.43;;;2.30;;
7653;SDS011;3869;48.406;10.774;2024-03-02T18:54:11;4.20;;;3.90;;
7653;SDS011;3869;48.406;10.774;2024-03-02T18:56:39;2.57;;;2.47;;
7653;SDS011;3869;48.406;10.774;2024-03-02T18:59:07;13.23;;;2.70;;
7653;SDS011;3869;48.406;10.774;2024-03-02T19:01:35;10.43;;;2.40;;
7653;SDS011;3869;48.406;10.774;2024-03-02T19:04:03;1.60;;;1.53;;
7653;SDS011;3869;48.406;10.774;2024-03-02T19:06:32;5.40;;;2.90;;
7653;SDS011;3869;48.406;10.774;2024-03-02T19:09:01;5.27;;;1.50;;
7653;SDS011;3869;48.406;10.774;2024-03-02T19:11:30;5.77;;;2.00;;
7653;SDS011;3869;48.406;10.774;2024-03-02T19:13:58;5.37;;;3.93;;
7653;SDS011;3869;48.406;10.774;2024-03-02T19:16:26;7.97;;;3.33;;
7653;SDS011;3869;48.406;10.774;2024-03-02T19:18:54;3.30;;;2.33;;
7653;SDS011;3869;48.406;10.774;2024-03-02T19:21:22;5.30;;;4.70;;
7653;SDS011;3869;48.406;10.774;2024-03-02T19:23:50;3.90;;;2.00;;
7653;SDS011;3869;48.406;10.774;2024-03-02T19:26:19;3.57;;;2.60;;
7653;SDS011;3869;48.406;10.774;2024-03-02T19:28:47;4.83;;;3.90;;
7653;SDS011;3869;48.406;10.774;2024-03-02T19:31:15;11.63;;;2.33;;
7653;SDS011;3869;48.406;10.774;2024-03-02T19:33:44;3.73;;;2.57;;
7653;SDS011;3869;48.406;10.774;2024-03-02T19:36:12;1.73;;;1.63;;
7653;SDS011;3869;48.406;10.774;2024-03-02T19:38:40;3.30;;;3.07;;
7653;SDS011;3869;48.406;10.774;2024-03-02T19:41:09;2.83;;;2.73;;
7653;SDS011;3869;48.406;10.774;2024-03-02T19:43:38;4.90;;;1.83;;
7653;SDS011;3869;48.406;10.774;2024-03-02T19:46:06;1.17;;;1.17;;
7653;SDS011;3869;48.406;10.774;2024-03-02T19:48:34;3.90;;;3.50;;
7653;SDS011;3869;48.406;10.774;2024-03-02T19:51:02;5.63;;;2.70;;
7653;SDS011;3869;48.406;10.774;2024-03-02T19:53:31;5.20;;;3.97;;
7653;SDS011;3869;48.406;10.774;2024-03-02T19:55:59;4.90;;;4.47;;
7653;SDS011;3869;48.406;10.774;2024-03-02T19:58:27;2.20;;;1.97;;
7653;SDS011;3869;48.406;10.774;2024-03-02T20:00:56;10.03;;;4.10;;
7653;SDS011;3869;48.406;10.774;2024-03-02T20:03:24;2.97;;;2.63;;
7653;SDS011;3869;48.406;10.774;2024-03-02T20:05:52;1.17;;;1.17;;
7653;SDS011;3869;48.406;10.774;2024-03-02T20:08:21;2.57;;;2.30;;
7653;SDS011;3869;48.406;10.774;2024-03-02T20:10:49;3.27;;;3.00;;
7653;SDS011;3869;48.406;10.774;2024-03-02T20:13:17;2.07;;;1.63;;
7653;SDS011;3869;48.406;10.774;2024-03-02T20:15:45;4.33;;;3.93;;
7653;SDS011;3869;48.406;10.774;2024-03-02T20:18:14;12.23;;;3.47;;
7653;SDS011;3869;48.406;10.774;2024-03-02T20:20:44;1.57;;;1.50;;
7653;SDS011;3869;48.406;10.774;2024-03-02T20:23:12;1.50;;;1.40;;
7653;SDS011;3869;48.406;10.774;2024-03-02T20:25:40;0.93;;;0.93;;
7653;SDS011;3869;48.406;10.774;2024-03-02T20:28:08;7.07;;;4.20;;
7653;SDS011;3869;48.406;10.774;2024-03-02T20:30:36;2.20;;;1.37;;
7653;SDS011;3869;48.406;10.774;2024-03-02T20:33:04;6.87;;;2.50;;
7653;SDS011;3869;48.406;10.774;2024-03-02T20:35:34;3.97;;;2.33;;
7653;SDS011;3869;48.406;10.774;2024-03-02T20:38:02;2.43;;;2.23;;
7653;SDS011;3869;48.406;10.774;2024-03-02T20:40:30;2.83;;;2.07;;
7653;SDS011;3869;48.406;10.774;2024-03-02T20:42:59;3.83;;;3.47;;
7653;SDS011;3869;48.406;10.774;2024-03-02T20:45:27;2.83;;;2.63;;
7653;SDS011;3869;48.406;10.774;2024-03-02T20:47:55;3.30;;;2.33;;
7653;SDS011;3869;48.406;10.774;2024-03-02T20:50:23;2.93;;;2.60;;
7653;SDS011;3869;48.406;10.774;2024-03-02T20:52:52;2.40;;;1.77;;
7653;SDS011;3869;48.406;10.774;2024-03-02T20:55:22;1.93;;;1.83;;
7653;SDS011;3869;48.406;10.774;2024-03-02T20:57:50;3.00;;;2.80;;
7653;SDS011;3869;48.406;10.774;2024-03-02T21:00:18;4.43;;;3.20;;
7653;SDS011;3869;48.406;10.774;2024-03-02T21:02:46;1.70;;;1.60;;
7653;SDS011;3869;48.406;10.774;2024-03-02T21:05:14;2.07;;;1.93;;
7653;SDS011;3869;48.406;10.774;2024-03-02T21:07:42;2.03;;;1.47;;
7653;SDS011;3869;48.406;10.774;2024-03-02T21:10:12;3.77;;;1.97;;
7653;SDS011;3869;48.406;10.774;2024-03-02T21:12:40;4.90;;;2.27;;
7653;SDS011;3869;48.406;10.774;2024-03-02T21:15:08;6.67;;;2.20;;
7653;SDS011;3869;48.406;10.774;2024-03-02T21:17:36;5.60;;;1.90;;
7653;SDS011;3869;48.406;10.774;2024-03-02T21:20:05;8.47;;;2.97;;
7653;SDS011;3869;48.406;10.774;2024-03-02T21:22:35;6.13;;;2.83;;
7653;SDS011;3869;48.406;10.774;2024-03-02T21:25:05;3.53;;;3.03;;
7653;SDS011;3869;48.406;10.774;2024-03-02T21:27:38;2.53;;;1.50;;
7653;SDS011;3869;48.406;10.774;2024-03-02T21:30:07;1.37;;;1.27;;
7653;SDS011;3869;48.406;10.774;2024-03-02T21:32:35;3.60;;;2.53;;
7653;SDS011;3869;48.406;10.774;2024-03-02T21:35:04;1.23;;;1.20;;
7653;SDS011;3869;48.406;10.774;2024-03-02T21:37:32;4.77;;;1.80;;
7653;SDS011;3869;48.406;10.774;2024-03-02T21:40:00;7.60;;;2.83;;
7653;SDS011;3869;48.406;10.774;2024-03-02T21:42:29;1.63;;;1.53;;
7653;SDS011;3869;48.406;10.774;2024-03-02T21:44:58;12.13;;;3.20;;
7653;SDS011;3869;48.406;10.774;2024-03-02T21:47:26;4.07;;;2.83;;
7653;SDS011;3869;48.406;10.774;2024-03-02T21:49:54;1.70;;;1.60;;
7653;SDS011;3869;48.406;10.774;2024-03-02T21:52:22;2.77;;;2.47;;
7653;SDS011;3869;48.406;10.774;2024-03-02T21:54:50;2.60;;;2.40;;
7653;SDS011;3869;48.406;10.774;2024-03-02T21:57:18;4.53;;;2.03;;